Time;durP1;ratioP1;P1;durP2;ratioP2;P2;SDS_P1;SDS_P2;PMS_P1;PMS_P2;Temp;Humidity;BMP_temperature;BMP_pressure;BME280_temperature;BME280_humidity;BME280_pressure;Samples;Min_cycle;Max_cycle;Signal;HPM_P1;HPM_P2
2023/12/07 00:01:02;;;;;;;28.20;13.30;;;;;;;-7.78;69.96;100886.94;5088855;28;20501;-62
2023/12/07 00:03:28;;;;;;;24.48;12.10;;;;;;;-7.77;68.27;100878.28;5074583;28;20489;-61
2023/12/07 00:05:54;;;;;;;25.52;13.50;;;;;;;-7.83;68.27;100882.94;5074137;28;20074;-62
2023/12/07 00:08:19;;;;;;;29.90;12.80;;;;;;;-7.89;69.28;100883.28;5082828;28;20044;-62
2023/12/07 00:10:45;;;;;;;28.40;13.25;;;;;;;-7.97;69.74;100878.56;5071199;28;20044;-62
2023/12/07 00:13:11;;;;;;;26.60;12.70;;;;;;;-7.85;69.33;100887.34;5082978;28;20058;-66
2023/12/07 00:15:36;;;;;;;30.77;13.65;;;;;;;-7.80;69.75;100882.78;5091282;28;20028;-62
2023/12/07 00:18:03;;;;;;;29.17;13.45;;;;;;;-7.77;68.95;100880.03;5072650;28;20056;-62
2023/12/07 00:20:29;;;;;;;23.98;12.63;;;;;;;-7.70;69.29;100880.53;5086624;28;20044;-62
2023/12/07 00:22:55;;;;;;;25.13;11.98;;;;;;;-7.73;68.83;100884.13;5074003;28;20052;-62
2023/12/07 00:25:21;;;;;;;29.80;14.40;;;;;;;-7.77;68.50;100880.03;5086301;28;20040;-61
2023/12/07 00:27:51;;;;;;;25.83;12.20;;;;;;;-7.81;69.19;100897.38;5075150;28;20060;-62
2023/12/07 00:30:16;;;;;;;26.27;12.65;;;;;;;-7.83;69.56;100888.09;5086973;28;20040;-60
2023/12/07 00:32:46;;;;;;;25.95;12.27;;;;;;;-7.82;69.59;100889.75;5082240;28;20437;-64
2023/12/07 00:35:12;;;;;;;37.47;14.75;;;;;;;-8.02;70.23;100886.50;5075933;28;20042;-62
2023/12/07 00:37:37;;;;;;;31.48;13.88;;;;;;;-7.90;69.16;100886.75;5071850;28;20143;-61
2023/12/07 00:40:04;;;;;;;31.48;14.38;;;;;;;-7.90;69.96;100897.06;5070861;28;20040;-62
2023/12/07 00:42:30;;;;;;;28.70;13.60;;;;;;;-7.85;69.57;100892.50;5078289;28;20063;-61
2023/12/07 00:44:56;;;;;;;29.17;14.13;;;;;;;-7.87;69.03;100890.00;5085597;28;20513;-63
2023/12/07 00:47:21;;;;;;;27.35;12.27;;;;;;;-8.00;68.69;100887.25;5086800;28;20071;-62
2023/12/07 00:49:47;;;;;;;27.20;13.55;;;;;;;-8.19;70.73;100890.88;5082864;28;20044;-62
2023/12/07 00:52:13;;;;;;;31.60;14.20;;;;;;;-8.18;69.91;100893.34;5075216;28;20048;-61
2023/12/07 00:54:39;;;;;;;27.27;13.82;;;;;;;-8.17;70.03;100891.63;5070504;28;20040;-62
2023/12/07 00:57:08;;;;;;;24.10;11.93;;;;;;;-8.24;70.39;100893.69;5070675;28;20113;-62
2023/12/07 00:59:33;;;;;;;30.98;12.60;;;;;;;-8.33;71.38;100894.97;5074804;28;20032;-62
2023/12/07 01:02:03;;;;;;;28.35;12.10;;;;;;;-8.37;71.37;100898.63;5083976;28;20040;-61
2023/12/07 01:04:29;;;;;;;22.08;10.75;;;;;;;-8.37;71.18;100898.63;5072049;28;20131;-61
2023/12/07 01:06:55;;;;;;;29.85;12.63;;;;;;;-8.31;71.25;100902.63;5081846;28;20100;-61
2023/12/07 01:09:21;;;;;;;26.00;12.07;;;;;;;-8.46;71.63;100899.16;5080364;28;20040;-61
2023/12/07 01:11:47;;;;;;;24.70;11.82;;;;;;;-8.49;71.92;100902.69;5085156;28;20048;-61
2023/12/07 01:22:51;;;;;;;29.23;12.32;;;;;;;-8.46;70.74;100904.28;5090039;28;20055;-61
2023/12/07 01:25:21;;;;;;;28.20;12.30;;;;;;;-8.44;70.63;100899.06;5076204;28;20040;-63
2023/12/07 01:27:47;;;;;;;31.00;12.67;;;;;;;-8.47;70.91;100911.19;5074707;28;20519;-61
2023/12/07 01:34:26;;;;;;;24.08;11.98;;;;;;;-8.59;71.94;100914.34;5092011;28;20059;-61
2023/12/07 01:36:52;;;;;;;26.80;11.27;;;;;;;-8.60;71.96;100920.41;5073458;28;20118;-63
2023/12/07 01:39:18;;;;;;;20.42;11.05;;;;;;;-8.59;71.24;100923.81;5082825;28;20036;-62
2023/12/07 01:41:44;;;;;;;23.70;11.57;;;;;;;-8.51;71.15;100924.25;5082406;28;20040;-63
2023/12/07 01:44:09;;;;;;;32.25;13.13;;;;;;;-8.52;71.67;100922.59;5073803;28;20048;-61
2023/12/07 01:46:35;;;;;;;22.35;11.75;;;;;;;-8.53;71.99;100926.91;5072472;28;20059;-62
2023/12/07 01:49:09;;;;;;;30.20;12.18;;;;;;;-8.47;70.93;100934.31;5077207;28;20062;-60
2023/12/07 01:51:35;;;;;;;23.40;11.20;;;;;;;-8.51;72.03;100937.13;5073554;28;20047;-61
2023/12/07 01:54:01;;;;;;;28.33;12.95;;;;;;;-8.49;71.13;100931.00;5073530;28;20040;-60
2023/12/07 01:56:27;;;;;;;24.73;11.57;;;;;;;-8.49;71.15;100933.56;5071960;28;20040;-62
2023/12/07 01:58:53;;;;;;;26.73;12.32;;;;;;;-8.56;71.96;100939.94;5085938;28;20056;-62
2023/12/07 02:01:19;;;;;;;25.35;12.25;;;;;;;-8.57;72.35;100943.38;5073921;28;20032;-62
2023/12/07 02:03:44;;;;;;;29.98;12.75;;;;;;;-8.49;70.50;100938.69;5086429;28;20119;-61
2023/12/07 02:06:10;;;;;;;23.15;10.05;;;;;;;-8.56;70.82;100932.22;5084254;28;20121;-62
2023/12/07 02:08:40;;;;;;;23.50;10.73;;;;;;;-8.56;72.17;100947.66;5071646;28;20052;-61
2023/12/07 02:11:09;;;;;;;22.95;10.98;;;;;;;-8.65;71.57;100944.69;5087226;28;20052;-61
2023/12/07 02:13:37;;;;;;;20.58;11.35;;;;;;;-8.60;71.57;100947.88;5092251;28;20056;-62
2023/12/07 02:16:09;;;;;;;27.52;9.82;;;;;;;-8.73;72.28;100951.03;5056868;28;20040;-62
2023/12/07 02:18:45;;;;;;;25.65;10.60;;;;;;;-8.70;72.55;100957.78;5057728;28;20052;-63
2023/12/07 02:21:18;;;;;;;24.30;12.13;;;;;;;-8.77;71.16;100957.22;5083887;28;20086;-61
2023/12/07 02:23:44;;;;;;;28.38;11.93;;;;;;;-8.72;71.25;100957.00;5086819;28;20036;-61
2023/12/07 02:26:53;;;;;;;29.13;13.63;;;;;;;-8.69;72.60;100957.69;5073390;28;20067;-62
2023/12/07 02:29:19;;;;;;;26.83;11.57;;;;;;;-8.70;71.73;100960.34;5083019;28;20047;-64
2023/12/07 02:31:45;;;;;;;26.90;12.68;;;;;;;-8.70;71.38;100950.06;5091306;28;20554;-62
2023/12/07 02:34:11;;;;;;;23.85;11.23;;;;;;;-8.71;71.26;100956.91;5089929;28;20082;-62
2023/12/07 02:36:39;;;;;;;20.50;9.73;;;;;;;-8.67;71.18;100952.47;5074551;28;20064;-60
2023/12/07 02:39:06;;;;;;;21.02;9.70;;;;;;;-8.67;70.98;100959.38;5071251;28;20048;-61
2023/12/07 02:41:32;;;;;;;17.02;8.00;;;;;;;-8.86;70.85;100942.25;5088343;28;20040;-60
2023/12/07 02:43:58;;;;;;;19.98;10.73;;;;;;;-8.81;70.55;100958.28;5091182;28;20062;-61
2023/12/07 02:47:13;;;;;;;23.23;11.23;;;;;;;-8.75;70.00;100959.72;5081585;28;20036;-63
2023/12/07 02:49:39;;;;;;;21.63;9.48;;;;;;;-8.78;70.91;100968.41;5080894;28;20143;-62
2023/12/07 02:52:05;;;;;;;16.17;8.38;;;;;;;-8.90;70.56;100958.75;5086333;28;20555;-62
2023/12/07 02:54:30;;;;;;;19.95;8.85;;;;;;;-8.92;70.35;100958.81;5083521;28;20068;-61
2023/12/07 02:56:56;;;;;;;17.92;9.65;;;;;;;-8.88;71.70;100976.66;5076346;28;20405;-61
2023/12/07 02:59:22;;;;;;;21.98;10.20;;;;;;;-8.80;70.57;100972.78;5084046;28;20036;-62
2023/12/07 03:01:48;;;;;;;20.45;9.45;;;;;;;-8.84;71.62;100976.44;5072283;28;20041;-62
2023/12/07 03:04:13;;;;;;;24.75;9.75;;;;;;;-8.86;70.59;100980.81;5053921;28;20064;-62
2023/12/07 03:06:39;;;;;;;22.77;10.20;;;;;;;-8.84;70.48;100973.03;5070536;28;20040;-61
2023/12/07 03:09:05;;;;;;;21.00;10.77;;;;;;;-8.79;71.94;100976.22;5072152;28;20052;-61
2023/12/07 03:11:30;;;;;;;21.67;10.90;;;;;;;-8.82;70.77;100973.78;5072074;28;20409;-62
2023/12/07 03:13:56;;;;;;;21.83;9.18;;;;;;;-8.93;70.63;100979.44;5072093;28;20052;-62
2023/12/07 03:16:21;;;;;;;19.08;9.70;;;;;;;-8.87;71.63;100994.56;5071661;28;20505;-62
2023/12/07 03:18:47;;;;;;;21.23;10.23;;;;;;;-8.93;70.64;100992.28;5057603;28;20052;-61
2023/12/07 03:21:13;;;;;;;18.50;9.38;;;;;;;-8.84;71.56;100998.75;5073531;28;20086;-61
2023/12/07 03:23:38;;;;;;;16.27;8.07;;;;;;;-8.96;69.79;100995.84;5090672;28;20471;-61
2023/12/07 03:26:04;;;;;;;20.52;9.70;;;;;;;-8.99;71.20;100996.00;5089964;28;20043;-60
2023/12/07 03:28:30;;;;;;;18.80;8.68;;;;;;;-8.95;69.81;100996.66;5070346;28;20147;-62
2023/12/07 03:30:56;;;;;;;21.30;10.13;;;;;;;-8.93;71.44;101000.84;5081510;28;20044;-61
2023/12/07 03:33:21;;;;;;;18.95;8.93;;;;;;;-8.93;70.29;101005.16;5073575;28;20146;-61
2023/12/07 03:35:47;;;;;;;25.48;9.45;;;;;;;-8.94;70.11;101006.03;5091216;28;20075;-62
2023/12/07 03:38:12;;;;;;;17.20;7.45;;;;;;;-9.00;69.65;101012.31;5087012;28;20063;-61
2023/12/07 03:40:38;;;;;;;18.27;9.27;;;;;;;-8.97;71.23;101014.75;5085331;28;20447;-62
2023/12/07 03:43:04;;;;;;;15.10;8.02;;;;;;;-8.94;70.94;101009.47;5066791;28;20466;-61
2023/12/07 03:45:29;;;;;;;23.10;9.55;;;;;;;-8.99;70.88;101015.72;5073313;28;20084;-63
2023/12/07 03:47:55;;;;;;;20.65;10.38;;;;;;;-8.99;71.24;101018.28;5077037;28;20506;-61
2023/12/07 03:50:21;;;;;;;21.05;9.82;;;;;;;-8.94;70.43;101006.88;5071926;28;20041;-62
2023/12/07 03:52:46;;;;;;;17.42;9.55;;;;;;;-8.99;70.76;101010.59;5071844;28;20414;-61
2023/12/07 03:55:12;;;;;;;19.80;9.55;;;;;;;-8.92;71.18;101009.38;5074780;28;20051;-61
2023/12/07 03:57:38;;;;;;;25.73;9.95;;;;;;;-8.87;69.60;101019.44;5088570;28;20063;-61
2023/12/07 04:00:07;;;;;;;22.13;9.40;;;;;;;-8.82;70.67;101015.75;5093918;28;20457;-62
2023/12/07 04:02:33;;;;;;;23.77;10.52;;;;;;;-8.80;70.71;101013.09;5091135;28;20050;-61
2023/12/07 04:05:01;;;;;;;19.80;9.68;;;;;;;-8.78;69.81;101027.53;5090139;28;20040;-60
2023/12/07 04:07:31;;;;;;;19.90;9.35;;;;;;;-8.72;69.77;101032.38;5091747;28;20105;-59
2023/12/07 04:09:57;;;;;;;17.13;9.30;;;;;;;-8.79;70.30;101028.47;5090304;28;20044;-60
2023/12/07 04:12:23;;;;;;;17.35;10.38;;;;;;;-8.75;69.40;101026.56;5089891;28;20044;-60
2023/12/07 04:14:50;;;;;;;23.35;10.65;;;;;;;-8.69;69.83;101028.84;5091425;28;20421;-62
2023/12/07 04:17:16;;;;;;;26.13;10.30;;;;;;;-8.65;69.89;101030.34;5091143;28;20037;-60
2023/12/07 04:19:41;;;;;;;18.77;10.52;;;;;;;-8.72;68.97;101032.38;5078371;28;20036;-60
2023/12/07 04:22:07;;;;;;;22.77;10.70;;;;;;;-8.82;69.85;101032.88;5095834;28;20036;-61
2023/12/07 04:24:32;;;;;;;24.65;12.05;;;;;;;-8.82;70.51;101036.31;5089969;28;20032;-60
2023/12/07 04:26:58;;;;;;;27.52;13.07;;;;;;;-8.82;69.54;101031.19;5108090;28;20036;-62
2023/12/07 04:29:24;;;;;;;25.38;12.32;;;;;;;-8.96;68.92;101034.38;5111239;28;20128;-61
2023/12/07 04:31:49;;;;;;;27.40;13.25;;;;;;;-8.89;69.89;101042.63;5092716;28;20050;-61
2023/12/07 04:34:16;;;;;;;22.27;10.75;;;;;;;-8.83;70.35;101041.50;5111523;28;20048;-60
2023/12/07 04:36:41;;;;;;;33.33;14.63;;;;;;;-8.78;69.48;101034.41;5092248;28;20457;-61
2023/12/07 04:39:08;;;;;;;24.15;11.23;;;;;;;-8.83;69.27;101031.22;5100397;28;20055;-61
2023/12/07 04:41:33;;;;;;;28.63;12.90;;;;;;;-8.87;69.49;101042.56;5105385;28;20188;-60
2023/12/07 04:43:59;;;;;;;29.20;12.20;;;;;;;-8.82;69.10;101041.44;5105349;28;20545;-60
2023/12/07 04:46:25;;;;;;;23.52;12.60;;;;;;;-8.89;68.86;101044.38;5097895;28;20039;-63
2023/12/07 04:48:51;;;;;;;57.97;15.70;;;;;;;-8.79;69.99;101045.63;5112883;28;20397;-62
2023/12/07 04:51:16;;;;;;;23.35;11.73;;;;;;;-8.72;69.11;101050.38;5086982;28;20085;-62
2023/12/07 04:53:42;;;;;;;28.45;13.60;;;;;;;-8.72;69.43;101044.41;5074246;28;20040;-61
2023/12/07 04:56:08;;;;;;;26.25;10.77;;;;;;;-8.74;69.03;101046.22;5083199;28;20031;-61
2023/12/07 04:58:34;;;;;;;21.92;9.73;;;;;;;-8.75;69.57;101050.53;5074258;28;20040;-62
2023/12/07 05:00:59;;;;;;;25.95;11.23;;;;;;;-8.75;69.30;101049.69;5093199;28;20043;-62
2023/12/07 05:03:25;;;;;;;19.70;9.32;;;;;;;-8.86;69.44;101055.34;5084938;28;20059;-63
2023/12/07 05:05:51;;;;;;;24.58;11.48;;;;;;;-8.87;69.07;101056.25;5103287;28;20505;-62
2023/12/07 05:08:17;;;;;;;26.45;11.20;;;;;;;-9.02;69.41;101056.97;5113506;28;20051;-61
2023/12/07 05:10:43;;;;;;;18.77;9.23;;;;;;;-9.10;69.25;101061.63;5113122;28;20398;-62
2023/12/07 05:13:09;;;;;;;20.83;10.20;;;;;;;-9.08;69.43;101062.41;5099470;28;20116;-60
2023/12/07 05:15:35;;;;;;;22.63;10.15;;;;;;;-9.08;69.99;101060.66;5099931;28;20047;-61
2023/12/07 05:18:01;;;;;;;23.10;10.90;;;;;;;-9.07;70.58;101069.19;5114777;28;20044;-61
2023/12/07 05:20:29;;;;;;;23.25;10.85;;;;;;;-9.11;69.92;101068.50;5114208;28;20108;-62
2023/12/07 05:22:55;;;;;;;23.30;9.85;;;;;;;-9.16;69.79;101075.59;5096535;28;20081;-60
2023/12/07 05:25:20;;;;;;;24.58;11.35;;;;;;;-9.21;69.53;101080.09;5096931;28;20035;-63
2023/12/07 05:27:46;;;;;;;24.48;11.90;;;;;;;-9.22;70.44;101079.25;5111972;28;20048;-61
2023/12/07 05:30:12;;;;;;;23.48;10.63;;;;;;;-9.24;70.08;101073.34;5112806;28;20493;-62
2023/12/07 05:32:38;;;;;;;23.70;10.45;;;;;;;-9.21;70.91;101082.66;5092977;28;20052;-62
2023/12/07 05:35:05;;;;;;;25.17;10.50;;;;;;;-9.19;70.33;101084.25;5077120;28;20045;-62
2023/12/07 05:37:32;;;;;;;22.27;10.00;;;;;;;-9.21;69.79;101086.06;5114342;28;20442;-60
2023/12/07 05:39:57;;;;;;;20.67;10.02;;;;;;;-9.16;69.60;101086.69;5101754;28;20036;-63
2023/12/07 05:42:23;;;;;;;27.33;13.07;;;;;;;-9.12;69.66;101083.97;5113723;27;20044;-62
2023/12/07 05:44:48;;;;;;;21.02;9.75;;;;;;;-9.12;70.46;101089.94;5113128;28;20044;-63
2023/12/07 05:47:14;;;;;;;18.98;9.50;;;;;;;-9.21;69.56;101098.06;5109392;28;20075;-62
2023/12/07 05:49:40;;;;;;;23.65;10.35;;;;;;;-9.23;69.82;101099.88;5080644;28;20063;-60
2023/12/07 05:52:05;;;;;;;19.77;9.75;;;;;;;-9.19;70.19;101099.66;5096203;28;20047;-61
2023/12/07 05:54:31;;;;;;;27.33;11.68;;;;;;;-9.09;69.60;101094.09;5115524;28;20105;-61
2023/12/07 05:56:57;;;;;;;20.23;10.98;;;;;;;-9.08;70.04;101090.66;5113231;28;20085;-61
2023/12/07 05:59:22;;;;;;;24.65;11.07;;;;;;;-9.09;70.32;101096.69;5113743;28;20112;-62
2023/12/07 06:01:51;;;;;;;20.85;10.25;;;;;;;-9.08;70.10;101093.22;5100726;28;20051;-63
2023/12/07 06:04:17;;;;;;;23.25;10.57;;;;;;;-9.09;69.07;101083.84;5092117;28;20430;-62
2023/12/07 06:06:42;;;;;;;19.90;9.48;;;;;;;-9.11;69.37;101093.38;5102324;28;20042;-63
2023/12/07 06:09:08;;;;;;;25.48;12.68;;;;;;;-9.07;68.94;101106.00;5113249;28;20051;-60
2023/12/07 06:11:34;;;;;;;24.02;11.15;;;;;;;-9.12;68.98;101102.78;5113170;28;20059;-62
2023/12/07 06:14:01;;;;;;;22.90;10.73;;;;;;;-9.06;69.74;101106.81;5113696;28;20365;-61
2023/12/07 06:16:26;;;;;;;24.63;11.63;;;;;;;-9.02;70.19;101108.34;5113118;28;20043;-62
2023/12/07 06:18:52;;;;;;;24.08;10.10;;;;;;;-8.97;69.57;101116.66;5112011;28;20089;-61
2023/12/07 06:21:18;;;;;;;22.55;10.75;;;;;;;-8.94;68.65;101109.69;5110528;28;20040;-63
2023/12/07 06:23:46;;;;;;;26.30;11.60;;;;;;;-8.97;69.60;101111.53;5092711;28;20070;-60
2023/12/07 06:26:12;;;;;;;23.77;11.18;;;;;;;-9.02;69.42;101116.06;5090776;28;20032;-62
2023/12/07 06:28:37;;;;;;;22.27;10.65;;;;;;;-8.92;69.29;101117.31;5092958;28;20046;-61
2023/12/07 06:31:09;;;;;;;20.13;9.25;;;;;;;-8.94;68.54;101112.25;5095291;28;20032;-60
2023/12/07 06:33:35;;;;;;;23.48;11.35;;;;;;;-8.90;68.58;101112.94;5104060;28;20485;-62
2023/12/07 06:36:03;;;;;;;23.65;11.32;;;;;;;-8.85;69.12;101102.41;5093497;28;20056;-63
2023/12/07 06:38:28;;;;;;;23.85;11.73;;;;;;;-8.83;69.49;101116.03;5095017;28;20086;-61
2023/12/07 06:40:56;;;;;;;30.42;12.98;;;;;;;-8.79;69.57;101115.84;5111573;28;20457;-64
2023/12/07 06:43:22;;;;;;;25.63;10.43;;;;;;;-8.73;69.34;101123.28;5094229;28;20521;-63
2023/12/07 06:45:48;;;;;;;22.58;11.63;;;;;;;-8.68;68.28;101120.47;5075276;28;20036;-63
2023/12/07 06:48:13;;;;;;;24.48;11.50;;;;;;;-8.63;68.17;101123.66;5112552;28;20424;-63
2023/12/07 06:50:39;;;;;;;22.92;11.88;;;;;;;-8.57;68.26;101117.41;5111837;28;20043;-64
2023/12/07 06:53:05;;;;;;;22.65;11.48;;;;;;;-8.44;68.30;101110.78;5111436;28;20051;-63
2023/12/07 06:55:31;;;;;;;26.65;12.52;;;;;;;-8.44;66.88;101112.50;5090217;28;20048;-64
2023/12/07 06:57:57;;;;;;;27.10;12.50;;;;;;;-8.52;67.47;101118.84;5109422;28;20044;-62
2023/12/07 07:00:24;;;;;;;24.77;10.20;;;;;;;-8.60;68.24;101120.13;5080601;28;20541;-64
2023/12/07 07:02:50;;;;;;;23.60;12.23;;;;;;;-8.62;67.25;101117.59;5106882;28;20047;-63
2023/12/07 07:05:16;;;;;;;20.92;10.40;;;;;;;-8.70;67.79;101114.59;5088317;28;20052;-62
2023/12/07 07:07:41;;;;;;;23.88;12.13;;;;;;;-8.63;68.55;101123.66;5102597;28;20093;-61
2023/12/07 07:10:09;;;;;;;24.38;11.77;;;;;;;-8.55;68.04;101121.56;5093231;28;20092;-63
2023/12/07 07:12:35;;;;;;;27.45;12.57;;;;;;;-8.50;67.77;101122.19;5096776;28;20040;-62
2023/12/07 07:15:01;;;;;;;23.45;11.82;;;;;;;-8.59;68.09;101120.03;5105157;28;20036;-64
2023/12/07 07:17:29;;;;;;;30.40;13.13;;;;;;;-8.55;68.14;101131.03;5111931;28;20036;-62
2023/12/07 07:19:55;;;;;;;31.92;12.65;;;;;;;-8.54;67.07;101120.66;5111183;28;20100;-62
2023/12/07 07:22:21;;;;;;;24.90;12.73;;;;;;;-8.43;67.12;101120.16;5100526;28;20044;-61
2023/12/07 07:24:47;;;;;;;25.08;12.35;;;;;;;-8.46;66.47;101121.13;5081414;28;20123;-63
2023/12/07 07:27:13;;;;;;;22.02;11.05;;;;;;;-8.41;66.77;101126.06;5094689;28;20086;-61
2023/12/07 07:29:38;;;;;;;26.23;13.02;;;;;;;-8.33;67.21;101126.47;5075698;28;20076;-63
2023/12/07 07:32:05;;;;;;;27.00;12.80;;;;;;;-8.13;65.69;101130.69;5091285;28;20062;-61
2023/12/07 07:34:31;;;;;;;27.33;13.57;;;;;;;-8.01;65.60;101134.38;5073247;28;20048;-63
2023/12/07 07:36:57;;;;;;;31.25;12.43;;;;;;;-7.93;65.52;101139.16;5100071;28;20108;-61
2023/12/07 07:39:23;;;;;;;26.33;11.23;;;;;;;-8.10;64.29;101145.97;5076798;28;20051;-62
2023/12/07 07:41:49;;;;;;;24.60;12.63;;;;;;;-8.23;65.51;101137.19;5092909;28;20035;-66
2023/12/07 07:44:14;;;;;;;24.30;11.40;;;;;;;-8.31;65.83;101136.72;5110467;28;20040;-63
2023/12/07 07:46:41;;;;;;;27.23;13.93;;;;;;;-8.40;65.94;101144.91;5111421;28;20036;-63
2023/12/07 07:49:07;;;;;;;25.80;12.88;;;;;;;-8.45;66.36;101145.09;5092756;28;20145;-63
2023/12/07 07:51:33;;;;;;;31.20;12.23;;;;;;;-8.47;65.78;101134.91;5110107;28;20477;-64
2023/12/07 07:53:59;;;;;;;28.58;13.48;;;;;;;-8.32;66.07;101143.59;5110361;28;20047;-62
2023/12/07 07:56:25;;;;;;;32.25;13.38;;;;;;;-8.37;65.36;101140.41;5111279;28;20036;-62
2023/12/07 07:58:51;;;;;;;37.10;15.20;;;;;;;-8.30;66.04;101143.50;5111784;28;20485;-63
2023/12/07 08:01:17;;;;;;;27.48;12.88;;;;;;;-8.20;65.78;101144.75;5111712;28;20252;-61
2023/12/07 08:03:42;;;;;;;27.88;12.27;;;;;;;-8.05;64.69;101145.75;5110111;28;20066;-62
2023/12/07 08:06:10;;;;;;;26.58;12.38;;;;;;;-8.15;63.99;101141.94;5110835;28;20036;-62
2023/12/07 08:08:38;;;;;;;26.42;12.93;;;;;;;-8.21;64.24;101143.06;5092860;28;20400;-62
2023/12/07 08:11:05;;;;;;;31.30;13.20;;;;;;;-8.17;65.17;101152.31;5082667;28;20036;-63
2023/12/07 08:13:33;;;;;;;26.02;12.15;;;;;;;-8.24;64.07;101156.91;5086706;28;20054;-64
2023/12/07 08:16:01;;;;;;;24.40;11.82;;;;;;;-8.30;64.89;101148.66;5021954;28;20454;-65
2023/12/07 08:18:27;;;;;;;25.23;12.52;;;;;;;-8.39;65.74;101155.09;5070838;28;20055;-62
2023/12/07 08:20:53;;;;;;;28.42;12.25;;;;;;;-8.35;66.00;101166.03;5069604;28;20036;-64
2023/12/07 08:23:18;;;;;;;27.70;12.45;;;;;;;-8.38;65.11;101166.22;5090086;28;20040;-61
2023/12/07 08:25:44;;;;;;;30.15;13.57;;;;;;;-8.22;65.87;101152.53;5075491;28;20045;-65
2023/12/07 08:28:10;;;;;;;24.17;10.57;;;;;;;-8.20;64.54;101154.22;5074714;28;20041;-62
2023/12/07 08:30:36;;;;;;;25.17;12.15;;;;;;;-8.22;64.64;101149.97;5073481;28;20511;-65
2023/12/07 08:33:02;;;;;;;23.23;12.15;;;;;;;-8.20;64.41;101154.22;5074087;28;20044;-63
2023/12/07 08:35:27;;;;;;;24.45;11.55;;;;;;;-8.23;63.96;101144.91;5074282;28;20051;-64
2023/12/07 08:37:53;;;;;;;26.17;10.98;;;;;;;-8.19;64.14;101146.41;5072925;28;20051;-63
2023/12/07 08:40:19;;;;;;;28.08;12.68;;;;;;;-8.13;64.76;101140.97;5078502;28;20040;-63
2023/12/07 08:42:46;;;;;;;28.05;13.07;;;;;;;-8.01;64.20;101142.94;5093047;28;20093;-65
2023/12/07 08:45:12;;;;;;;24.42;12.48;;;;;;;-7.94;64.36;101143.50;5072883;28;20048;-66
2023/12/07 08:47:38;;;;;;;29.90;13.80;;;;;;;-7.89;63.42;101141.50;5065935;28;20044;-68
2023/12/07 08:50:04;;;;;;;25.35;13.65;;;;;;;-7.96;64.47;101131.59;5079949;28;20051;-65
2023/12/07 08:52:30;;;;;;;25.85;12.35;;;;;;;-7.92;63.88;101144.22;5072636;28;20560;-67
2023/12/07 08:54:56;;;;;;;22.08;11.57;;;;;;;-7.89;63.59;101132.94;5089070;28;20044;-67
2023/12/07 08:57:22;;;;;;;25.73;12.77;;;;;;;-7.93;63.18;101145.16;5093800;28;20604;-65
2023/12/07 08:59:47;;;;;;;30.48;11.98;;;;;;;-8.00;64.17;101136.91;5093230;28;20043;-65
2023/12/07 09:02:13;;;;;;;27.33;13.32;;;;;;;-7.81;63.74;101135.97;5093221;28;20543;-66
2023/12/07 09:04:39;;;;;;;28.83;13.73;;;;;;;-7.71;63.33;101136.34;5092924;28;20073;-66
2023/12/07 09:07:05;;;;;;;31.83;14.23;;;;;;;-7.67;62.77;101130.16;5092713;28;20203;-66
2023/12/07 09:09:31;;;;;;;25.33;13.48;;;;;;;-7.66;62.84;101135.19;5075635;28;20043;-66
2023/12/07 09:11:57;;;;;;;39.50;15.82;;;;;;;-7.67;62.28;101136.13;5092468;28;20032;-64
2023/12/07 09:14:22;;;;;;;37.53;15.38;;;;;;;-7.70;63.44;101133.72;5093445;28;20085;-64
2023/12/07 09:16:48;;;;;;;29.50;14.00;;;;;;;-7.86;62.04;101128.47;5093845;28;20040;-65
2023/12/07 09:19:14;;;;;;;29.10;15.57;;;;;;;-7.74;63.49;101129.59;5092084;28;20058;-66
2023/12/07 09:21:40;;;;;;;37.05;14.55;;;;;;;-7.64;63.20;101127.41;5092438;28;20040;-65
2023/12/07 09:24:06;;;;;;;30.27;15.35;;;;;;;-7.61;62.45;101140.97;5092784;28;20048;-66
2023/12/07 09:26:32;;;;;;;31.08;13.38;;;;;;;-7.68;63.04;101137.00;5092567;28;20047;-68
2023/12/07 09:28:58;;;;;;;34.78;15.27;;;;;;;-7.66;62.08;101132.63;5075863;28;20049;-66
2023/12/07 09:31:23;;;;;;;31.05;14.35;;;;;;;-7.61;63.18;101140.13;5072108;28;20470;-65
2023/12/07 09:33:49;;;;;;;31.20;13.38;;;;;;;-7.69;62.98;101137.09;5073901;28;20062;-64
2023/12/07 09:36:18;;;;;;;27.65;13.63;;;;;;;-7.74;62.14;101133.94;5092602;28;20404;-65
2023/12/07 09:38:44;;;;;;;30.73;14.35;;;;;;;-7.80;62.76;101137.63;5090956;28;20036;-65
2023/12/07 09:41:11;;;;;;;34.83;14.45;;;;;;;-7.93;63.22;101132.28;5092841;28;20072;-65
2023/12/07 09:43:37;;;;;;;31.30;14.18;;;;;;;-7.84;62.71;101134.38;5088641;28;20036;-64
2023/12/07 09:46:02;;;;;;;26.45;13.85;;;;;;;-7.87;62.27;101131.97;5091128;28;20036;-70
2023/12/07 09:48:28;;;;;;;25.98;12.13;;;;;;;-7.92;62.79;101136.50;5073011;28;20059;-64
2023/12/07 09:50:59;;;;;;;24.30;12.32;;;;;;;-7.96;62.50;101131.59;5092845;28;20047;-63
2023/12/07 09:53:27;;;;;;;29.05;14.52;;;;;;;-7.97;62.50;101129.91;5093087;28;20040;-64
2023/12/07 09:55:53;;;;;;;26.38;13.02;;;;;;;-8.07;63.02;101124.41;5090726;28;20048;-65
2023/12/07 09:58:19;;;;;;;29.63;13.52;;;;;;;-8.09;62.22;101132.22;5093105;28;20372;-66
2023/12/07 10:00:47;;;;;;;29.15;13.13;;;;;;;-8.06;62.13;101131.19;5074590;28;20042;-65
2023/12/07 10:03:21;;;;;;;25.55;11.43;;;;;;;-8.13;63.05;101129.84;5092997;28;20109;-64
2023/12/07 10:05:55;;;;;;;27.25;13.15;;;;;;;-8.17;62.96;101130.91;5089740;28;20032;-64
2023/12/07 10:08:31;;;;;;;22.23;12.18;;;;;;;-8.28;63.30;101126.28;5070159;28;20131;-68
2023/12/07 10:11:10;;;;;;;27.67;14.57;;;;;;;-8.15;62.54;101132.47;5088323;28;20054;-67
2023/12/07 10:13:36;;;;;;;27.08;12.60;;;;;;;-8.22;63.22;101131.94;5086397;28;20389;-66
2023/12/07 10:16:17;;;;;;;30.42;14.68;;;;;;;-8.31;64.13;101136.72;5073622;28;20036;-66
2023/12/07 10:18:43;;;;;;;27.80;11.90;;;;;;;-8.40;62.93;101134.63;5089855;28;20044;-66
2023/12/07 10:21:09;;;;;;;26.75;12.10;;;;;;;-8.39;63.80;101133.69;5092559;28;20082;-66
2023/12/07 10:23:39;;;;;;;27.75;10.43;;;;;;;-8.47;63.30;101140.06;5091210;28;20044;-66
2023/12/07 10:26:05;;;;;;;21.35;11.45;;;;;;;-8.38;63.17;101132.78;5092068;28;20036;-66
2023/12/07 10:28:34;;;;;;;19.42;12.05;;;;;;;-8.34;64.25;101142.00;5090948;28;20032;-63
2023/12/07 10:31:01;;;;;;;23.88;12.18;;;;;;;-8.24;63.91;101143.22;5073979;28;20086;-65
2023/12/07 10:33:27;;;;;;;29.27;13.40;;;;;;;-8.22;63.73;101141.41;5092370;28;20040;-63
2023/12/07 10:35:52;;;;;;;29.10;14.57;;;;;;;-8.10;63.78;101143.38;5073984;28;20540;-63
2023/12/07 10:38:19;;;;;;;21.08;11.70;;;;;;;-8.08;63.36;101139.00;5091760;28;20070;-65
2023/12/07 10:40:46;;;;;;;26.83;12.32;;;;;;;-8.04;63.23;101134.53;5090558;28;20123;-67
2023/12/07 10:43:12;;;;;;;29.92;13.30;;;;;;;-8.05;62.34;101140.59;5092224;28;20048;-64
2023/12/07 10:45:39;;;;;;;27.60;12.13;;;;;;;-7.97;62.49;101137.63;5090601;28;20097;-64
2023/12/07 10:48:07;;;;;;;25.63;11.38;;;;;;;-8.07;61.35;101140.66;5087795;28;20539;-63
2023/12/07 10:50:53;;;;;;;22.00;11.23;;;;;;;-8.24;61.90;101148.38;5090748;28;20127;-66
2023/12/07 10:53:22;;;;;;;27.90;13.15;;;;;;;-8.26;62.25;101143.31;5089789;28;20036;-66
2023/12/07 10:56:10;;;;;;;26.38;12.05;;;;;;;-8.29;61.72;101142.63;5069482;28;20461;-63
2023/12/07 10:58:37;;;;;;;20.48;10.82;;;;;;;-8.36;62.26;101141.25;5089355;28;20111;-66
2023/12/07 11:01:03;;;;;;;18.95;9.75;;;;;;;-8.57;63.30;101151.66;5090144;28;20044;-64
2023/12/07 11:03:29;;;;;;;27.17;12.60;;;;;;;-8.48;62.65;101148.66;5090151;28;20047;-65
2023/12/07 11:05:55;;;;;;;30.48;13.63;;;;;;;-8.36;62.56;101154.94;5090514;28;20074;-65
2023/12/07 11:08:27;;;;;;;22.63;12.50;;;;;;;-8.28;63.18;101150.25;5086429;28;20072;-63
2023/12/07 11:11:06;;;;;;;26.10;10.90;;;;;;;-8.30;62.34;101152.06;5091142;28;20119;-64
2023/12/07 11:13:35;;;;;;;24.98;12.18;;;;;;;-8.23;63.60;101153.44;5087937;28;20108;-65
2023/12/07 11:16:01;;;;;;;19.50;11.55;;;;;;;-8.30;62.05;101161.53;5090834;28;20471;-63
2023/12/07 11:18:27;;;;;;;23.92;11.43;;;;;;;-8.34;63.18;101162.59;5080241;28;20069;-61
2023/12/07 11:20:54;;;;;;;27.63;13.32;;;;;;;-8.31;63.48;101152.97;5086412;28;20035;-63